createdAt,value
2023-04-07T00:00:19.547Z,1009.23
2023-04-07T00:01:19.544Z,1009.20
2023-04-07T00:02:19.769Z,1009.18
2023-04-07T00:03:19.699Z,1009.20
2023-04-07T00:04:19.653Z,1009.17
2023-04-07T00:05:19.533Z,1009.20
2023-04-07T00:06:19.536Z,1009.20
2023-04-07T00:07:19.518Z,1009.18
2023-04-07T00:08:19.515Z,1009.18
2023-04-07T00:09:19.575Z,1009.20
2023-04-07T00:10:19.501Z,1009.19
2023-04-07T00:11:19.493Z,1009.17
2023-04-07T00:12:19.489Z,1009.11
2023-04-07T00:13:19.482Z,1009.15
2023-04-07T00:14:19.487Z,1009.14
2023-04-07T00:15:19.473Z,1009.16
2023-04-07T00:16:19.604Z,1009.15
2023-04-07T00:17:19.465Z,1009.13
2023-04-07T00:18:19.460Z,1009.09
2023-04-07T00:19:19.453Z,1009.14
2023-04-07T00:20:19.449Z,1009.09
2023-04-07T00:21:19.453Z,1009.13
2023-04-07T00:22:19.442Z,1009.09
2023-04-07T00:23:19.435Z,1009.12
2023-04-07T00:24:30.930Z,1009.11
2023-04-07T00:25:19.446Z,1009.12
2023-04-07T00:26:19.420Z,1009.11
2023-04-07T00:27:19.423Z,1009.10
2023-04-07T00:28:19.419Z,1009.10
2023-04-07T00:29:19.406Z,1009.09
2023-04-07T00:30:19.400Z,1009.14
2023-04-07T00:31:19.405Z,1009.11
2023-04-07T00:32:19.390Z,1009.12
2023-04-07T00:33:19.417Z,1009.14
2023-04-07T00:34:19.383Z,1009.11
2023-04-07T00:35:19.383Z,1009.12
2023-04-07T00:36:19.372Z,1009.11
2023-04-07T00:37:19.408Z,1009.10
2023-04-07T00:38:19.370Z,1009.11
2023-04-07T00:39:19.357Z,1009.10
2023-04-07T00:40:19.351Z,1009.11
2023-04-07T00:41:19.364Z,1009.11
2023-04-07T00:42:19.340Z,1009.11
2023-04-07T00:43:19.338Z,1009.10
2023-04-07T00:44:19.332Z,1009.11
2023-04-07T00:45:19.322Z,1009.10
2023-04-07T00:46:19.547Z,1009.08
2023-04-07T00:47:19.316Z,1009.09
2023-04-07T00:48:19.311Z,1009.12
2023-04-07T00:49:19.306Z,1009.12
2023-04-07T00:50:19.304Z,1009.10
2023-04-07T00:51:19.294Z,1009.07
2023-04-07T00:52:19.288Z,1009.08
2023-04-07T00:53:19.287Z,1009.07
2023-04-07T00:54:19.282Z,1009.03
2023-04-07T00:55:19.311Z,1009.02
2023-04-07T00:56:19.288Z,1009.01
2023-04-07T00:57:19.342Z,1008.99
2023-04-07T00:58:19.305Z,1009.01
2023-04-07T00:59:19.337Z,1009.00
2023-04-07T01:00:19.354Z,1009.00
2023-04-07T01:01:19.333Z,1009.00
2023-04-07T01:02:19.324Z,1009.04
2023-04-07T01:03:19.543Z,1008.99
2023-04-07T01:04:19.567Z,1008.96
2023-04-07T01:05:19.338Z,1008.95
2023-04-07T01:06:19.222Z,1008.94
2023-04-07T01:07:19.220Z,1008.91
2023-04-07T01:08:19.233Z,1008.93
2023-04-07T01:09:19.209Z,1008.91
2023-04-07T01:10:19.201Z,1008.94
2023-04-07T01:11:19.194Z,1008.94
2023-04-07T01:12:19.193Z,1008.87
2023-04-07T01:13:19.214Z,1008.92
2023-04-07T01:14:19.182Z,1008.93
2023-04-07T01:15:19.174Z,1008.93
2023-04-07T01:16:19.176Z,1008.91
2023-04-07T01:17:19.175Z,1008.91
2023-04-07T01:18:19.172Z,1008.91
2023-04-07T01:19:19.159Z,1008.94
2023-04-07T01:20:19.160Z,1008.91
2023-04-07T01:21:19.148Z,1008.91
2023-04-07T01:22:19.144Z,1008.90
2023-04-07T01:23:19.137Z,1008.92
2023-04-07T01:24:19.136Z,1008.93
2023-04-07T01:25:19.159Z,1008.90
2023-04-07T01:26:19.145Z,1008.89
2023-04-07T01:27:19.116Z,1008.89
2023-04-07T01:28:19.117Z,1008.89
2023-04-07T01:29:19.135Z,1008.89
2023-04-07T01:30:19.109Z,1008.92
2023-04-07T01:31:19.101Z,1008.86
2023-04-07T01:32:19.097Z,1008.86
2023-04-07T01:33:19.086Z,1008.92
2023-04-07T01:34:19.087Z,1008.89
2023-04-07T01:35:19.077Z,1008.87
2023-04-07T01:36:19.074Z,1008.85
2023-04-07T01:37:19.122Z,1008.91
2023-04-07T01:38:19.093Z,1008.91
2023-04-07T01:39:19.060Z,1008.88
2023-04-07T01:40:19.057Z,1008.89
2023-04-07T01:41:19.052Z,1008.87
2023-04-07T01:42:19.048Z,1008.88
2023-04-07T01:43:19.050Z,1008.88
2023-04-07T01:44:19.042Z,1008.92
2023-04-07T01:45:19.058Z,1008.85
2023-04-07T01:46:19.033Z,1008.90
2023-04-07T01:47:19.595Z,1008.87
2023-04-07T01:48:19.027Z,1008.87
2023-04-07T01:49:19.023Z,1008.88
2023-04-07T01:50:19.013Z,1008.88
2023-04-07T01:51:19.059Z,1008.85
2023-04-07T01:52:19.002Z,1008.83
2023-04-07T01:53:19.007Z,1008.81
2023-04-07T01:54:19.019Z,1008.86
2023-04-07T01:55:18.988Z,1008.84
2023-04-07T01:56:19.024Z,1008.86
2023-04-07T01:57:18.977Z,1008.87
2023-04-07T01:58:18.977Z,1008.84
2023-04-07T01:59:18.967Z,1008.82
2023-04-07T02:00:18.965Z,1008.83
2023-04-07T02:01:19.042Z,1008.84
2023-04-07T02:02:19.030Z,1008.79
2023-04-07T02:03:19.119Z,1008.80
2023-04-07T02:04:18.953Z,1008.78
2023-04-07T02:05:18.942Z,1008.77
2023-04-07T02:06:18.936Z,1008.77
2023-04-07T02:07:18.931Z,1008.78
2023-04-07T02:08:18.925Z,1008.79
2023-04-07T02:09:18.924Z,1008.74
2023-04-07T02:10:18.916Z,1008.75
2023-04-07T02:11:18.914Z,1008.79
2023-04-07T02:12:18.911Z,1008.78
2023-04-07T02:13:18.924Z,1008.80
2023-04-07T02:14:18.908Z,1008.80
2023-04-07T02:15:18.913Z,1008.78
2023-04-07T02:16:18.946Z,1008.80
2023-04-07T02:17:18.944Z,1008.77
2023-04-07T02:18:18.883Z,1008.80
2023-04-07T02:19:18.880Z,1008.78
2023-04-07T02:20:18.872Z,1008.78
2023-04-07T02:21:18.863Z,1008.83
2023-04-07T02:22:18.859Z,1008.80
2023-04-07T02:23:18.853Z,1008.79
2023-04-07T02:24:18.850Z,1008.77
2023-04-07T02:25:18.845Z,1008.79
2023-04-07T02:26:18.858Z,1008.76
2023-04-07T02:27:18.848Z,1008.79
2023-04-07T02:28:18.836Z,1008.76
2023-04-07T02:29:18.826Z,1008.76
2023-04-07T02:30:18.821Z,1008.78
2023-04-07T02:31:18.862Z,1008.74
2023-04-07T02:32:18.812Z,1008.78
2023-04-07T02:33:18.829Z,1008.73
2023-04-07T02:34:18.803Z,1008.73
2023-04-07T02:35:18.801Z,1008.76
2023-04-07T02:36:18.800Z,1008.72
2023-04-07T02:37:18.786Z,1008.76
2023-04-07T02:38:18.808Z,1008.75
2023-04-07T02:39:18.792Z,1008.77
2023-04-07T02:40:18.776Z,1008.79
2023-04-07T02:41:18.770Z,1008.77
2023-04-07T02:42:18.767Z,1008.82
2023-04-07T02:43:18.859Z,1008.80
2023-04-07T02:44:18.756Z,1008.77
2023-04-07T02:45:18.754Z,1008.78
2023-04-07T02:46:18.777Z,1008.80
2023-04-07T02:47:18.757Z,1008.79
2023-04-07T02:48:18.737Z,1008.82
2023-04-07T02:49:18.756Z,1008.85
2023-04-07T02:50:18.732Z,1008.81
2023-04-07T02:51:18.727Z,1008.86
2023-04-07T02:52:18.714Z,1008.86
2023-04-07T02:53:18.713Z,1008.83
2023-04-07T02:54:18.710Z,1008.85
2023-04-07T02:55:18.701Z,1008.82
2023-04-07T02:56:18.695Z,1008.84
2023-04-07T02:57:18.689Z,1008.91
2023-04-07T02:58:18.693Z,1008.90
2023-04-07T02:59:18.688Z,1008.89
2023-04-07T03:00:18.678Z,1008.90
2023-04-07T03:01:18.736Z,1008.93
2023-04-07T03:02:18.759Z,1008.88
2023-04-07T03:03:18.781Z,1008.88
2023-04-07T03:04:18.840Z,1008.92
2023-04-07T03:05:18.676Z,1008.90
2023-04-07T03:06:18.651Z,1008.89
2023-04-07T03:07:18.643Z,1008.88
2023-04-07T03:08:18.652Z,1008.88
2023-04-07T03:09:18.634Z,1008.90
2023-04-07T03:10:18.652Z,1008.87
2023-04-07T03:11:18.623Z,1008.88
2023-04-07T03:12:18.619Z,1008.86
2023-04-07T03:13:18.619Z,1008.87
2023-04-07T03:14:18.612Z,1008.87
2023-04-07T03:15:18.969Z,1008.85
2023-04-07T03:16:18.638Z,1008.89
2023-04-07T03:17:18.740Z,1008.89
2023-04-07T03:18:18.593Z,1008.84
2023-04-07T03:19:18.586Z,1008.86
2023-04-07T03:20:18.582Z,1008.86
2023-04-07T03:21:18.606Z,1008.87
2023-04-07T03:22:18.579Z,1008.87
2023-04-07T03:23:18.570Z,1008.88
2023-04-07T03:24:18.596Z,1008.88
2023-04-07T03:25:18.557Z,1008.87
2023-04-07T03:26:18.560Z,1008.86
2023-04-07T03:27:18.547Z,1008.88
2023-04-07T03:28:18.548Z,1008.87
2023-04-07T03:29:18.547Z,1008.89
2023-04-07T03:30:18.542Z,1008.88
2023-04-07T03:31:18.617Z,1008.90
2023-04-07T03:32:18.538Z,1008.89
2023-04-07T03:33:18.535Z,1008.88
2023-04-07T03:34:18.534Z,1008.94
2023-04-07T03:35:18.523Z,1008.89
2023-04-07T03:36:18.539Z,1008.93
2023-04-07T03:37:18.556Z,1008.92
2023-04-07T03:38:18.527Z,1008.95
2023-04-07T03:39:18.492Z,1008.90
2023-04-07T03:40:18.490Z,1008.96
2023-04-07T03:41:18.480Z,1008.94
2023-04-07T03:42:18.481Z,1008.94
2023-04-07T03:43:18.473Z,1008.95
2023-04-07T03:44:18.468Z,1008.95
2023-04-07T03:45:18.485Z,1009.00
2023-04-07T03:46:18.487Z,1009.00
2023-04-07T03:47:18.457Z,1008.99
2023-04-07T03:48:18.470Z,1008.97
2023-04-07T03:49:18.442Z,1008.97
2023-04-07T03:50:18.438Z,1008.98
2023-04-07T03:51:18.431Z,1008.95
2023-04-07T03:52:18.435Z,1008.97
2023-04-07T03:53:18.445Z,1009.01
2023-04-07T03:54:18.422Z,1008.98
2023-04-07T03:55:18.412Z,1008.95
2023-04-07T03:56:18.415Z,1008.98
2023-04-07T03:57:18.413Z,1009.00
2023-04-07T03:58:18.449Z,1008.99
2023-04-07T03:59:18.404Z,1009.01
2023-04-07T04:00:18.411Z,1009.00
2023-04-07T04:01:18.397Z,1009.04
2023-04-07T04:02:18.516Z,1009.03
2023-04-07T04:03:18.617Z,1009.01
2023-04-07T04:04:18.429Z,1009.06
2023-04-07T04:05:18.361Z,1009.04
2023-04-07T04:06:18.358Z,1009.04
2023-04-07T04:07:18.354Z,1009.03
2023-04-07T04:08:18.353Z,1009.08
2023-04-07T04:09:18.364Z,1009.05
2023-04-07T04:10:18.336Z,1009.10
2023-04-07T04:11:18.342Z,1009.07
2023-04-07T04:12:18.328Z,1009.08
2023-04-07T04:13:18.327Z,1009.10
2023-04-07T04:14:18.318Z,1009.08
2023-04-07T04:15:18.318Z,1009.10
2023-04-07T04:16:18.340Z,1009.13
2023-04-07T04:17:18.306Z,1009.12
2023-04-07T04:18:18.297Z,1009.14
2023-04-07T04:19:18.293Z,1009.12
2023-04-07T04:20:18.287Z,1009.17
2023-04-07T04:21:18.288Z,1009.17
2023-04-07T04:22:18.281Z,1009.22
2023-04-07T04:23:18.277Z,1009.15
2023-04-07T04:24:18.274Z,1009.20
2023-04-07T04:25:18.280Z,1009.16
2023-04-07T04:26:18.255Z,1009.19
2023-04-07T04:27:18.253Z,1009.21
2023-04-07T04:28:18.247Z,1009.18
2023-04-07T04:29:18.244Z,1009.18
2023-04-07T04:30:18.251Z,1009.19
2023-04-07T04:31:18.296Z,1009.21
2023-04-07T04:32:18.236Z,1009.23
2023-04-07T04:33:18.222Z,1009.22
2023-04-07T04:34:18.217Z,1009.23
2023-04-07T04:35:18.224Z,1009.22
2023-04-07T04:36:18.243Z,1009.20
2023-04-07T04:37:18.201Z,1009.22
2023-04-07T04:38:18.195Z,1009.26
2023-04-07T04:39:18.191Z,1009.26
2023-04-07T04:40:18.184Z,1009.27
2023-04-07T04:41:18.206Z,1009.31
2023-04-07T04:42:18.175Z,1009.32
2023-04-07T04:43:18.171Z,1009.32
2023-04-07T04:44:18.178Z,1009.35
2023-04-07T04:45:18.160Z,1009.34
2023-04-07T04:46:18.157Z,1009.34
2023-04-07T04:47:18.249Z,1009.30
2023-04-07T04:48:18.147Z,1009.33
2023-04-07T04:49:18.142Z,1009.34
2023-04-07T04:50:18.148Z,1009.33
2023-04-07T04:51:18.130Z,1009.32
2023-04-07T04:52:18.390Z,1009.32
2023-04-07T04:53:18.125Z,1009.32
2023-04-07T04:54:18.117Z,1009.33
2023-04-07T04:55:18.145Z,1009.36
2023-04-07T04:56:18.105Z,1009.33
2023-04-07T04:57:18.122Z,1009.34
2023-04-07T04:58:18.094Z,1009.34
2023-04-07T04:59:18.091Z,1009.38
2023-04-07T05:00:18.083Z,1009.34
2023-04-07T05:01:18.134Z,1009.39
2023-04-07T05:02:18.171Z,1009.43
2023-04-07T05:03:18.297Z,1009.41
2023-04-07T05:04:18.250Z,1009.41
2023-04-07T05:05:18.087Z,1009.42
2023-04-07T05:06:18.061Z,1009.42
2023-04-07T05:07:18.083Z,1009.42
2023-04-07T05:08:18.044Z,1009.44
2023-04-07T05:09:18.043Z,1009.45
2023-04-07T05:10:18.036Z,1009.46
2023-04-07T05:11:18.031Z,1009.43
2023-04-07T05:12:18.028Z,1009.44
2023-04-07T05:13:18.045Z,1009.45
2023-04-07T05:14:18.011Z,1009.46
2023-04-07T05:15:18.006Z,1009.49
2023-04-07T05:16:18.073Z,1009.51
2023-04-07T05:17:18.004Z,1009.51
2023-04-07T05:18:17.994Z,1009.48
2023-04-07T05:19:18.004Z,1009.50
2023-04-07T05:20:17.979Z,1009.54
2023-04-07T05:21:17.982Z,1009.55
2023-04-07T05:22:17.996Z,1009.53
2023-04-07T05:23:17.966Z,1009.54
2023-04-07T05:24:17.960Z,1009.53
2023-04-07T05:25:17.972Z,1009.57
2023-04-07T05:26:17.952Z,1009.53
2023-04-07T05:27:17.948Z,1009.54
2023-04-07T05:28:17.938Z,1009.57
2023-04-07T05:29:17.956Z,1009.60
2023-04-07T05:30:17.933Z,1009.60
2023-04-07T05:31:17.994Z,1009.58
2023-04-07T05:32:17.919Z,1009.58
2023-04-07T05:33:17.916Z,1009.59
2023-04-07T05:34:17.914Z,1009.59
2023-04-07T05:35:17.910Z,1009.56
2023-04-07T05:36:17.907Z,1009.60
2023-04-07T05:37:17.898Z,1009.59
2023-04-07T05:38:17.907Z,1009.59
2023-04-07T05:39:17.891Z,1009.61
2023-04-07T05:40:17.888Z,1009.64
2023-04-07T05:41:17.884Z,1009.62
2023-04-07T05:42:17.878Z,1009.63
2023-04-07T05:43:17.868Z,1009.64
2023-04-07T05:44:17.858Z,1009.65
2023-04-07T05:45:17.882Z,1009.66
2023-04-07T05:46:17.882Z,1009.67
2023-04-07T05:47:17.842Z,1009.67
2023-04-07T05:48:17.836Z,1009.66
2023-04-07T05:49:20.009Z,1009.70
2023-04-07T05:50:17.829Z,1009.70
2023-04-07T05:51:17.826Z,1009.73
2023-04-07T05:52:17.826Z,1009.78
2023-04-07T05:53:17.847Z,1009.73
2023-04-07T05:54:17.811Z,1009.76
2023-04-07T05:55:17.807Z,1009.78
2023-04-07T05:56:17.801Z,1009.81
2023-04-07T05:57:17.793Z,1009.81
2023-04-07T05:58:17.785Z,1009.80
2023-04-07T05:59:17.797Z,1009.80
2023-04-07T06:00:17.778Z,1009.81
2023-04-07T06:01:17.789Z,1009.81
2023-04-07T06:02:17.928Z,1009.85
2023-04-07T06:03:17.804Z,1009.85
2023-04-07T06:04:17.758Z,1009.85
2023-04-07T06:05:17.801Z,1009.90
2023-04-07T06:06:17.745Z,1009.86
2023-04-07T06:07:17.749Z,1009.88
2023-04-07T06:08:17.732Z,1009.88
2023-04-07T06:09:17.738Z,1009.87
2023-04-07T06:10:17.725Z,1009.88
2023-04-07T06:11:17.733Z,1009.82
2023-04-07T06:12:17.711Z,1009.88
2023-04-07T06:13:17.707Z,1009.91
2023-04-07T06:14:17.702Z,1009.91
2023-04-07T06:15:17.703Z,1009.91
2023-04-07T06:16:19.418Z,1009.98
2023-04-07T06:17:17.716Z,1009.98
2023-04-07T06:18:17.681Z,1009.96
2023-04-07T06:19:17.684Z,1010.02
2023-04-07T06:20:17.670Z,1010.01
2023-04-07T06:21:17.667Z,1010.02
2023-04-07T06:22:17.661Z,1009.98
2023-04-07T06:23:17.656Z,1010.05
2023-04-07T06:24:17.654Z,1010.00
2023-04-07T06:25:17.652Z,1010.03
2023-04-07T06:26:17.651Z,1010.03
2023-04-07T06:27:17.641Z,1010.02
2023-04-07T06:28:17.629Z,1010.01
2023-04-07T06:29:17.630Z,1010.05
2023-04-07T06:30:17.627Z,1010.07
2023-04-07T06:31:17.663Z,1010.06
2023-04-07T06:32:17.618Z,1010.07
2023-04-07T06:33:17.630Z,1010.05
2023-04-07T06:34:17.597Z,1010.04
2023-04-07T06:35:17.592Z,1010.06
2023-04-07T06:36:17.591Z,1010.07
2023-04-07T06:37:17.632Z,1010.05
2023-04-07T06:38:17.577Z,1010.06
2023-04-07T06:39:17.575Z,1010.06
2023-04-07T06:40:17.565Z,1010.09
2023-04-07T06:41:17.565Z,1010.08
2023-04-07T06:42:17.563Z,1010.05
2023-04-07T06:43:17.571Z,1010.09
2023-04-07T06:44:17.581Z,1010.14
2023-04-07T06:45:17.563Z,1010.12
2023-04-07T06:46:17.626Z,1010.13
2023-04-07T06:47:17.532Z,1010.14
2023-04-07T06:48:17.524Z,1010.18
2023-04-07T06:49:17.562Z,1010.16
2023-04-07T06:50:17.518Z,1010.17
2023-04-07T06:51:17.509Z,1010.16
2023-04-07T06:52:17.512Z,1010.19
2023-04-07T06:53:17.500Z,1010.20
2023-04-07T06:54:17.494Z,1010.19
2023-04-07T06:55:17.492Z,1010.24
2023-04-07T06:56:17.492Z,1010.23
2023-04-07T06:57:17.691Z,1010.24
2023-04-07T06:58:17.484Z,1010.21
2023-04-07T06:59:17.470Z,1010.24
2023-04-07T07:00:17.469Z,1010.29
2023-04-07T07:01:17.488Z,1010.29
2023-04-07T07:02:17.693Z,1010.32
2023-04-07T07:03:17.586Z,1010.31
2023-04-07T07:04:17.515Z,1010.30
2023-04-07T07:05:17.462Z,1010.32
2023-04-07T07:06:17.436Z,1010.29
2023-04-07T07:07:17.428Z,1010.30
2023-04-07T07:08:17.422Z,1010.35
2023-04-07T07:09:17.421Z,1010.31
2023-04-07T07:10:17.424Z,1010.31
2023-04-07T07:11:17.412Z,1010.35
2023-04-07T07:12:17.413Z,1010.34
2023-04-07T07:13:17.397Z,1010.38
2023-04-07T07:14:17.390Z,1010.38
2023-04-07T07:15:17.386Z,1010.38
2023-04-07T07:16:17.416Z,1010.39
2023-04-07T07:17:17.378Z,1010.38
2023-04-07T07:18:17.373Z,1010.42
2023-04-07T07:19:17.375Z,1010.41
2023-04-07T07:20:17.363Z,1010.41
2023-04-07T07:21:17.377Z,1010.43
2023-04-07T07:22:17.351Z,1010.42
2023-04-07T07:23:17.350Z,1010.42
2023-04-07T07:24:17.343Z,1010.43
2023-04-07T07:25:17.345Z,1010.45
2023-04-07T07:26:17.329Z,1010.47
2023-04-07T07:27:17.328Z,1010.44
2023-04-07T07:28:17.333Z,1010.51
2023-04-07T07:29:17.318Z,1010.51
2023-04-07T07:30:17.309Z,1010.50
2023-04-07T07:31:17.355Z,1010.54
2023-04-07T07:32:17.298Z,1010.53
2023-04-07T07:33:17.293Z,1010.54
2023-04-07T07:34:17.286Z,1010.57
2023-04-07T07:35:17.305Z,1010.55
2023-04-07T07:36:17.313Z,1010.57
2023-04-07T07:37:17.304Z,1010.60
2023-04-07T07:38:17.275Z,1010.63
2023-04-07T07:39:17.264Z,1010.64
2023-04-07T07:40:17.257Z,1010.65
2023-04-07T07:42:17.245Z,1010.65
2023-04-07T07:43:17.247Z,1010.69
2023-04-07T07:44:17.237Z,1010.68
2023-04-07T07:45:17.232Z,1010.70
2023-04-07T07:46:17.285Z,1010.71
2023-04-07T07:47:17.240Z,1010.68
2023-04-07T07:48:17.215Z,1010.66
2023-04-07T07:49:17.213Z,1010.70
2023-04-07T07:50:17.206Z,1010.70
2023-04-07T07:51:17.206Z,1010.70
2023-04-07T07:52:17.199Z,1010.69
2023-04-07T07:53:17.212Z,1010.72
2023-04-07T07:54:17.189Z,1010.73
2023-04-07T07:55:17.185Z,1010.74
2023-04-07T07:56:17.178Z,1010.74
2023-04-07T07:57:17.621Z,1010.75
2023-04-07T07:58:17.170Z,1010.76
2023-04-07T07:59:17.889Z,1010.77
2023-04-07T08:00:17.159Z,1010.73
2023-04-07T08:01:17.152Z,1010.79
2023-04-07T08:02:17.237Z,1010.76
2023-04-07T08:03:17.231Z,1010.77
2023-04-07T08:04:17.219Z,1010.79
2023-04-07T08:05:17.132Z,1010.79
2023-04-07T08:06:17.135Z,1010.79
2023-04-07T08:07:17.120Z,1010.82
2023-04-07T08:08:17.124Z,1010.78
2023-04-07T08:09:17.131Z,1010.80
2023-04-07T08:10:17.105Z,1010.82
2023-04-07T08:11:17.117Z,1010.84
2023-04-07T08:12:17.117Z,1010.84
2023-04-07T08:13:17.106Z,1010.83
2023-04-07T08:14:17.092Z,1010.87
2023-04-07T08:15:17.100Z,1010.91
2023-04-07T08:16:17.213Z,1010.90
2023-04-07T08:17:17.071Z,1010.86
2023-04-07T08:18:17.067Z,1010.90
2023-04-07T08:19:17.066Z,1010.93
2023-04-07T08:20:17.063Z,1010.90
2023-04-07T08:21:17.055Z,1010.95
2023-04-07T08:22:17.047Z,1010.96
2023-04-07T08:23:17.057Z,1010.97
2023-04-07T08:24:17.039Z,1010.95
2023-04-07T08:25:17.051Z,1010.98
2023-04-07T08:26:17.028Z,1011.00
2023-04-07T08:27:17.019Z,1010.98
2023-04-07T08:28:17.018Z,1010.97
2023-04-07T08:29:17.008Z,1011.01
2023-04-07T08:30:17.022Z,1010.99
2023-04-07T08:31:17.064Z,1011.00
2023-04-07T08:32:17.000Z,1011.00
2023-04-07T08:33:16.990Z,1011.00
2023-04-07T08:34:16.998Z,1011.04
2023-04-07T08:35:16.980Z,1011.09
2023-04-07T08:36:17.010Z,1011.08
2023-04-07T08:37:16.971Z,1011.07
2023-04-07T08:38:16.969Z,1011.08
2023-04-07T08:39:16.961Z,1011.08
2023-04-07T08:40:16.958Z,1011.07
2023-04-07T08:41:16.973Z,1011.14
2023-04-07T08:42:16.960Z,1011.15
2023-04-07T08:43:16.940Z,1011.16
2023-04-07T08:44:16.942Z,1011.18
2023-04-07T08:45:16.933Z,1011.16
2023-04-07T08:46:16.955Z,1011.20
2023-04-07T08:47:16.933Z,1011.22
2023-04-07T08:48:16.918Z,1011.21
2023-04-07T08:49:16.931Z,1011.19
2023-04-07T08:50:16.915Z,1011.23
2023-04-07T08:51:16.898Z,1011.21
2023-04-07T08:52:16.902Z,1011.24
2023-04-07T08:53:16.895Z,1011.26
2023-04-07T08:54:16.887Z,1011.26
2023-04-07T08:55:16.881Z,1011.25
2023-04-07T08:56:16.897Z,1011.27
2023-04-07T08:57:16.901Z,1011.25
2023-04-07T08:58:16.879Z,1011.28
2023-04-07T08:59:16.865Z,1011.27
2023-04-07T09:00:16.864Z,1011.28
2023-04-07T09:01:17.159Z,1011.29
2023-04-07T09:02:16.861Z,1011.29
2023-04-07T09:03:17.037Z,1011.32
2023-04-07T09:04:16.894Z,1011.33
2023-04-07T09:05:16.881Z,1011.34
2023-04-07T09:06:16.831Z,1011.34
2023-04-07T09:07:16.821Z,1011.34
2023-04-07T09:08:16.817Z,1011.36
2023-04-07T09:09:16.809Z,1011.31
2023-04-07T09:10:16.807Z,1011.32
2023-04-07T09:11:16.800Z,1011.35
2023-04-07T09:12:16.797Z,1011.34
2023-04-07T09:13:16.824Z,1011.37
2023-04-07T09:14:16.788Z,1011.34
2023-04-07T09:15:16.781Z,1011.39
2023-04-07T09:16:16.788Z,1011.38
2023-04-07T09:17:16.771Z,1011.41
2023-04-07T09:18:16.917Z,1011.39
2023-04-07T09:19:16.769Z,1011.41
2023-04-07T09:20:16.764Z,1011.42
2023-04-07T09:21:16.750Z,1011.40
2023-04-07T09:22:16.753Z,1011.41
2023-04-07T09:23:16.741Z,1011.43
2023-04-07T09:24:16.741Z,1011.48
2023-04-07T09:25:16.740Z,1011.44
2023-04-07T09:26:16.726Z,1011.46
2023-04-07T09:27:17.385Z,1011.43
2023-04-07T09:28:16.716Z,1011.44
2023-04-07T09:29:16.730Z,1011.44
2023-04-07T09:30:16.715Z,1011.43
2023-04-07T09:31:16.698Z,1011.46
2023-04-07T09:32:16.712Z,1011.47
2023-04-07T09:33:16.691Z,1011.45
2023-04-07T09:34:16.690Z,1011.47
2023-04-07T09:35:16.694Z,1011.48
2023-04-07T09:36:16.769Z,1011.48
2023-04-07T09:37:16.673Z,1011.48
2023-04-07T09:38:16.670Z,1011.47
2023-04-07T09:39:16.665Z,1011.46
2023-04-07T09:40:16.659Z,1011.47
2023-04-07T09:41:16.758Z,1011.49
2023-04-07T09:42:16.654Z,1011.45
2023-04-07T09:43:16.665Z,1011.47
2023-04-07T09:44:16.649Z,1011.49
2023-04-07T09:45:27.364Z,1011.52
2023-04-07T09:46:16.682Z,1011.45
2023-04-07T09:47:16.631Z,1011.49
2023-04-07T09:48:16.619Z,1011.49
2023-04-07T09:49:16.612Z,1011.51
2023-04-07T09:50:16.632Z,1011.51
2023-04-07T09:51:16.621Z,1011.53
2023-04-07T09:52:16.607Z,1011.54
2023-04-07T09:53:16.594Z,1011.56
2023-04-07T09:54:16.595Z,1011.55
2023-04-07T09:55:16.589Z,1011.59
2023-04-07T09:56:16.583Z,1011.58
2023-04-07T09:57:16.575Z,1011.62
2023-04-07T09:58:16.641Z,1011.62
2023-04-07T09:59:16.568Z,1011.58
2023-04-07T10:00:16.564Z,1011.61
2023-04-07T10:01:16.677Z,1011.63
2023-04-07T10:03:16.606Z,1011.60
2023-04-07T10:04:16.629Z,1011.62
2023-04-07T10:05:16.560Z,1011.61
2023-04-07T10:06:16.645Z,1011.60
2023-04-07T10:07:16.531Z,1011.66
2023-04-07T10:08:16.527Z,1011.64
2023-04-07T10:09:16.525Z,1011.59
2023-04-07T10:10:16.532Z,1011.62
2023-04-07T10:11:16.521Z,1011.62
2023-04-07T10:12:16.518Z,1011.61
2023-04-07T10:13:16.525Z,1011.57
2023-04-07T10:14:16.552Z,1011.61
2023-04-07T10:15:16.502Z,1011.60
2023-04-07T10:16:16.552Z,1011.63
2023-04-07T10:17:16.504Z,1011.66
2023-04-07T10:18:16.475Z,1011.65
2023-04-07T10:19:16.492Z,1011.68
2023-04-07T10:20:16.466Z,1011.66
2023-04-07T10:21:16.476Z,1011.69
2023-04-07T10:22:16.458Z,1011.66
2023-04-07T10:23:16.450Z,1011.69
2023-04-07T10:24:16.449Z,1011.71
2023-04-07T10:25:16.523Z,1011.71
2023-04-07T10:26:16.437Z,1011.72
2023-04-07T10:27:16.442Z,1011.73
2023-04-07T10:28:16.433Z,1011.75
2023-04-07T10:29:16.427Z,1011.75
2023-04-07T10:30:16.428Z,1011.76
2023-04-07T10:31:16.450Z,1011.78
2023-04-07T10:32:16.415Z,1011.79
2023-04-07T10:33:16.427Z,1011.76
2023-04-07T10:34:16.400Z,1011.81
2023-04-07T10:35:16.401Z,1011.79
2023-04-07T10:36:16.390Z,1011.80
2023-04-07T10:37:16.383Z,1011.77
2023-04-07T10:38:16.522Z,1011.79
2023-04-07T10:39:16.373Z,1011.78
2023-04-07T10:40:16.369Z,1011.83
2023-04-07T10:41:16.363Z,1011.81
2023-04-07T10:42:16.360Z,1011.80
2023-04-07T10:43:16.355Z,1011.80
2023-04-07T10:44:16.353Z,1011.78
2023-04-07T10:45:16.348Z,1011.80
2023-04-07T10:46:16.368Z,1011.80
2023-04-07T10:47:16.351Z,1011.82
2023-04-07T10:48:16.331Z,1011.87
2023-04-07T10:49:18.565Z,1011.81
2023-04-07T10:50:16.323Z,1011.88
2023-04-07T10:51:16.320Z,1011.80
2023-04-07T10:52:16.312Z,1011.84
2023-04-07T10:53:16.333Z,1011.80
2023-04-07T10:54:16.309Z,1011.81
2023-04-07T10:55:16.301Z,1011.87
2023-04-07T10:56:16.293Z,1011.87
2023-04-07T10:57:16.293Z,1011.86
2023-04-07T10:58:16.288Z,1011.87
2023-04-07T10:59:16.353Z,1011.84
2023-04-07T11:00:16.301Z,1011.87
2023-04-07T11:01:16.368Z,1011.87
2023-04-07T11:02:16.716Z,1011.89
2023-04-07T11:03:16.427Z,1011.86
2023-04-07T11:04:16.349Z,1011.90
2023-04-07T11:05:16.269Z,1011.88
2023-04-07T11:06:16.269Z,1011.91
2023-04-07T11:07:16.238Z,1011.89
2023-04-07T11:08:16.236Z,1011.90
2023-04-07T11:09:16.227Z,1011.93
2023-04-07T11:10:16.306Z,1011.91
2023-04-07T11:11:16.218Z,1011.94
2023-04-07T11:12:16.214Z,1011.98
2023-04-07T11:13:16.208Z,1011.91
2023-04-07T11:14:16.213Z,1011.97
2023-04-07T11:15:16.200Z,1011.98
2023-04-07T11:16:16.233Z,1011.95
2023-04-07T11:17:16.192Z,1012.00
2023-04-07T11:18:16.194Z,1011.98
2023-04-07T11:19:16.200Z,1011.99
2023-04-07T11:20:16.230Z,1011.99
2023-04-07T11:21:16.190Z,1012.00
2023-04-07T11:22:28.549Z,1012.00
2023-04-07T11:23:16.160Z,1012.04
2023-04-07T11:24:16.159Z,1012.05
2023-04-07T11:25:16.151Z,1012.01
2023-04-07T11:26:16.185Z,1012.07
2023-04-07T11:27:16.143Z,1012.00
2023-04-07T11:28:16.146Z,1012.00
2023-04-07T11:29:16.133Z,1012.03
2023-04-07T11:30:16.154Z,1012.01
2023-04-07T11:31:16.228Z,1012.03
2023-04-07T11:32:16.122Z,1012.01
2023-04-07T11:33:16.112Z,1012.03
2023-04-07T11:34:16.110Z,1012.05
2023-04-07T11:35:16.106Z,1012.06
2023-04-07T11:36:16.170Z,1012.06
2023-04-07T11:37:16.121Z,1012.04
2023-04-07T11:38:16.096Z,1012.05
2023-04-07T11:39:16.084Z,1012.02
2023-04-07T11:40:16.083Z,1012.09
2023-04-07T11:41:16.072Z,1012.07
2023-04-07T11:42:16.072Z,1012.06
2023-04-07T11:43:16.071Z,1012.12
2023-04-07T11:44:16.068Z,1012.09
2023-04-07T11:45:16.056Z,1012.16
2023-04-07T11:46:16.119Z,1012.12
2023-04-07T11:47:16.047Z,1012.13
2023-04-07T11:48:16.044Z,1012.13
2023-04-07T11:49:16.035Z,1012.10
2023-04-07T11:50:16.109Z,1012.13
2023-04-07T11:51:16.027Z,1012.14
2023-04-07T11:52:16.025Z,1012.18
2023-04-07T11:53:16.053Z,1012.22
2023-04-07T11:54:16.016Z,1012.20
2023-04-07T11:55:16.010Z,1012.21
2023-04-07T11:56:16.007Z,1012.20
2023-04-07T11:57:16.000Z,1012.23
2023-04-07T11:58:15.997Z,1012.22
2023-04-07T11:59:16.009Z,1012.23
2023-04-07T12:00:15.987Z,1012.22
2023-04-07T12:01:15.995Z,1012.26
2023-04-07T12:02:16.088Z,1012.26
2023-04-07T12:03:16.350Z,1012.28
2023-04-07T12:04:16.198Z,1012.30
2023-04-07T12:05:16.093Z,1012.27
2023-04-07T12:06:15.960Z,1012.30
2023-04-07T12:07:15.954Z,1012.28